createdAt,value
2023-04-15T00:02:00.008Z,100276.91
2023-04-15T00:04:27.612Z,100279.59
2023-04-15T00:06:54.716Z,100281.56
2023-04-15T00:09:21.429Z,100278.59
2023-04-15T00:11:47.781Z,100280.38
2023-04-15T00:14:14.186Z,100276.94
2023-04-15T00:16:40.805Z,100277.69
2023-04-15T00:19:07.160Z,100283.91
2023-04-15T00:21:34.036Z,100285.63
2023-04-15T00:24:01.157Z,100277.75
2023-04-15T00:26:27.895Z,100275.94
2023-04-15T00:28:55.558Z,100272.38
2023-04-15T00:31:22.095Z,100272.28
2023-04-15T00:33:48.735Z,100278.34
2023-04-15T00:36:15.562Z,100274.22
2023-04-15T00:38:43.195Z,100272.38
2023-04-15T00:41:09.530Z,100278.56
2023-04-15T00:43:35.970Z,100276.69
2023-04-15T00:46:03.839Z,100279.47
2023-04-15T00:48:30.278Z,100274.22
2023-04-15T00:50:57.851Z,100273.34
2023-04-15T00:53:24.192Z,100265.16
2023-04-15T00:55:51.316Z,100274.75
2023-04-15T00:58:17.689Z,100271.28
2023-04-15T01:00:44.096Z,100277.53
2023-04-15T01:03:13.915Z,100270.41
2023-04-15T01:05:40.406Z,100269.88
2023-04-15T01:08:06.800Z,100276.09
2023-04-15T01:10:33.388Z,100272.66
2023-04-15T01:12:59.836Z,100268.47
2023-04-15T01:15:26.344Z,100279.84
2023-04-15T01:17:52.877Z,100277.41
2023-04-15T01:20:19.465Z,100275.63
2023-04-15T01:22:46.499Z,100279.78
2023-04-15T01:25:15.148Z,100276.50
2023-04-15T01:27:42.327Z,100289.38
2023-04-15T01:30:09.080Z,100287.78
2023-04-15T01:32:38.063Z,100279.78
2023-04-15T01:35:04.974Z,100281.75
2023-04-15T01:37:31.351Z,100284.56
2023-04-15T01:39:58.102Z,100288.16
2023-04-15T01:42:24.744Z,100280.66
2023-04-15T01:44:51.090Z,100280.53
2023-04-15T01:47:17.631Z,100284.88
2023-04-15T01:49:44.052Z,100282.25
2023-04-15T01:52:10.396Z,100281.50
2023-04-15T01:54:39.200Z,100284.13
2023-04-15T01:57:05.660Z,100281.75
2023-04-15T01:59:32.175Z,100278.97
2023-04-15T02:01:58.744Z,100279.94
2023-04-15T02:04:25.166Z,100277.25
2023-04-15T02:06:51.524Z,100284.69
2023-04-15T02:09:17.873Z,100288.25
2023-04-15T02:11:46.594Z,100283.25
2023-04-15T02:14:18.520Z,100284.00
2023-04-15T02:16:45.026Z,100291.34
2023-04-15T02:19:11.453Z,100284.25
2023-04-15T02:21:37.944Z,100287.88
2023-04-15T02:24:04.445Z,100287.88
2023-04-15T02:26:33.566Z,100286.25
2023-04-15T02:29:00.165Z,100281.25
2023-04-15T02:31:26.912Z,100286.25
2023-04-15T02:33:53.316Z,100284.44
2023-04-15T02:36:21.654Z,100286.94
2023-04-15T02:38:48.006Z,100285.25
2023-04-15T02:41:14.537Z,100283.53
2023-04-15T02:43:40.975Z,100287.06
2023-04-15T02:46:07.430Z,100289.41
2023-04-15T02:48:33.919Z,100291.25
2023-04-15T02:51:15.478Z,100296.41
2023-04-15T02:53:42.985Z,100287.53
2023-04-15T02:56:09.439Z,100285.00
2023-04-15T02:58:36.395Z,100287.69
2023-04-15T03:01:02.966Z,100286.94
2023-04-15T03:03:29.586Z,100292.94
2023-04-15T03:05:56.201Z,100295.66
2023-04-15T03:08:22.642Z,100284.06
2023-04-15T03:10:49.185Z,100292.88
2023-04-15T03:13:15.940Z,100296.41
2023-04-15T03:15:42.581Z,100288.78
2023-04-15T03:18:08.971Z,100294.69
2023-04-15T03:20:36.508Z,100298.38
2023-04-15T03:23:03.288Z,100296.41
2023-04-15T03:25:29.656Z,100298.38
2023-04-15T03:27:56.113Z,100296.50
2023-04-15T03:30:22.573Z,100300.22
2023-04-15T03:32:48.936Z,100303.72
2023-04-15T03:35:15.777Z,100298.47
2023-04-15T03:37:42.186Z,100303.72
2023-04-15T03:40:09.861Z,100305.53
2023-04-15T03:42:36.321Z,100298.38
2023-04-15T03:45:03.509Z,100297.50
2023-04-15T03:47:30.006Z,100294.94
2023-04-15T03:49:56.452Z,100300.19
2023-04-15T03:52:23.890Z,100292.38
2023-04-15T03:54:50.302Z,100295.97
2023-04-15T03:57:19.107Z,100300.75
2023-04-15T03:59:45.766Z,100298.75
2023-04-15T04:02:12.257Z,100300.63
2023-04-15T04:04:40.177Z,100297.28
2023-04-15T04:07:06.651Z,100312.88
2023-04-15T04:09:33.011Z,100307.47
2023-04-15T04:11:59.368Z,100311.81
2023-04-15T04:14:29.808Z,100310.97
2023-04-15T04:16:57.420Z,100311.88
2023-04-15T04:19:26.551Z,100297.47
2023-04-15T04:21:52.898Z,100306.81
2023-04-15T04:24:19.231Z,100306.81
2023-04-15T04:26:45.564Z,100313.78
2023-04-15T04:29:19.919Z,100318.44
2023-04-15T04:31:46.947Z,100312.25
2023-04-15T04:34:13.975Z,100307.53
2023-04-15T04:36:40.514Z,100311.19
2023-04-15T04:39:07.126Z,100304.19
2023-04-15T04:41:33.629Z,100300.75
2023-04-15T04:43:59.980Z,100311.44
2023-04-15T04:46:26.385Z,100312.06
2023-04-15T04:48:52.824Z,100313.63
2023-04-15T04:51:20.091Z,100316.22
2023-04-15T04:53:46.616Z,100316.16
2023-04-15T04:56:13.034Z,100313.72
2023-04-15T04:58:39.422Z,100327.66
2023-04-15T05:01:05.848Z,100324.13
2023-04-15T05:03:32.381Z,100329.47
2023-04-15T05:05:59.209Z,100323.03
2023-04-15T05:08:26.027Z,100330.63
2023-04-15T05:10:52.485Z,100319.22
2023-04-15T05:13:18.964Z,100325.22
2023-04-15T05:15:45.576Z,100328.31
2023-04-15T05:18:12.014Z,100329.28
2023-04-15T05:20:38.537Z,100332.84
2023-04-15T05:23:04.928Z,100327.59
2023-04-15T05:25:31.705Z,100329.97
2023-04-15T05:27:58.122Z,100328.25
2023-04-15T05:30:24.468Z,100334.22
2023-04-15T05:32:52.110Z,100329.19
2023-04-15T05:35:19.066Z,100329.66
2023-04-15T05:37:45.948Z,100327.28
2023-04-15T05:40:12.996Z,100333.25
2023-04-15T05:42:39.363Z,100336.88
2023-04-15T05:45:09.173Z,100337.44
2023-04-15T05:47:36.195Z,100333.69
2023-04-15T05:50:03.226Z,100325.66
2023-04-15T05:52:29.598Z,100329.22
2023-04-15T05:54:55.968Z,100334.63
2023-04-15T05:57:24.642Z,100338.97
2023-04-15T05:59:55.787Z,100332.97
2023-04-15T06:02:22.868Z,100342.31
2023-04-15T06:04:49.234Z,100343.88
2023-04-15T06:07:15.727Z,100342.81
2023-04-15T06:09:42.213Z,100334.50
2023-04-15T06:12:12.170Z,100336.50
2023-04-15T06:14:39.334Z,100335.38
2023-04-15T06:17:05.822Z,100338.78
2023-04-15T06:19:34.733Z,100342.66
2023-04-15T06:22:01.536Z,100339.88
2023-04-15T06:24:28.090Z,100346.09
2023-04-15T06:26:54.438Z,100341.75
2023-04-15T06:29:21.227Z,100343.06
2023-04-15T06:31:49.297Z,100346.44
2023-04-15T06:34:15.803Z,100350.69
2023-04-15T06:36:42.171Z,100345.38
2023-04-15T06:39:09.632Z,100357.19
2023-04-15T06:41:36.116Z,100356.09
2023-04-15T06:44:02.512Z,100353.78
2023-04-15T06:46:29.368Z,100353.97
2023-04-15T06:48:56.148Z,100351.78
2023-04-15T06:51:25.593Z,100355.03
2023-04-15T06:53:53.405Z,100350.69
2023-04-15T06:56:19.786Z,100361.44
2023-04-15T06:58:46.315Z,100369.00
2023-04-15T07:01:14.282Z,100359.75
2023-04-15T07:03:41.989Z,100359.63
2023-04-15T07:06:09.535Z,100360.63
2023-04-15T07:08:35.958Z,100368.03
2023-04-15T07:11:04.988Z,100364.81
2023-04-15T07:13:32.450Z,100362.44
2023-04-15T07:16:00.056Z,100362.63
2023-04-15T07:18:26.839Z,100364.78
2023-04-15T07:20:53.188Z,100365.81
2023-04-15T07:23:19.626Z,100366.19
2023-04-15T07:25:46.018Z,100373.69
2023-04-15T07:28:12.888Z,100377.78
2023-04-15T07:30:39.562Z,100375.84
2023-04-15T07:33:05.962Z,100380.31
2023-04-15T07:35:33.245Z,100361.44
2023-04-15T07:37:59.674Z,100373.81
2023-04-15T07:40:26.587Z,100368.19
2023-04-15T07:42:53.086Z,100376.94
2023-04-15T07:45:19.507Z,100374.53
2023-04-15T07:47:45.973Z,100377.59
2023-04-15T07:50:16.757Z,100379.72
2023-04-15T07:52:43.693Z,100388.50
2023-04-15T07:55:10.064Z,100381.34
2023-04-15T07:57:36.833Z,100380.44
2023-04-15T08:00:05.845Z,100385.69
2023-04-15T08:02:32.651Z,100378.66
2023-04-15T08:04:59.838Z,100374.31
2023-04-15T08:07:26.512Z,100375.72
2023-04-15T08:09:59.964Z,100375.03
2023-04-15T08:12:26.403Z,100382.91
2023-04-15T08:14:52.808Z,100381.13
2023-04-15T08:17:19.221Z,100383.59
2023-04-15T08:19:45.551Z,100374.31
2023-04-15T08:22:16.038Z,100384.34
2023-04-15T08:24:49.081Z,100377.66
2023-04-15T08:27:18.916Z,100379.13
2023-04-15T08:29:47.159Z,100375.63
2023-04-15T08:32:13.553Z,100382.00
2023-04-15T08:34:40.485Z,100384.84
2023-04-15T08:37:06.996Z,100387.69
2023-04-15T08:39:33.563Z,100386.69
2023-04-15T08:42:05.686Z,100385.63
2023-04-15T08:44:34.131Z,100384.56
2023-04-15T08:47:03.051Z,100381.88
2023-04-15T08:49:32.913Z,100382.84
2023-04-15T08:52:04.659Z,100383.66
2023-04-15T08:54:31.049Z,100392.03
2023-04-15T08:56:58.050Z,100385.16
2023-04-15T08:59:32.022Z,100393.09
2023-04-15T09:01:58.993Z,100393.63
2023-04-15T09:04:25.413Z,100402.56
2023-04-15T09:06:52.314Z,100400.50
2023-04-15T09:09:18.784Z,100390.75
2023-04-15T09:11:45.408Z,100393.25
2023-04-15T09:14:12.289Z,100393.75
2023-04-15T09:16:57.713Z,100392.47
2023-04-15T09:19:24.530Z,100397.47
2023-04-15T09:21:54.625Z,100395.97
2023-04-15T09:24:22.835Z,100399.00
2023-04-15T09:26:54.846Z,100403.28
2023-04-15T09:29:21.320Z,100402.88
2023-04-15T09:31:47.813Z,100400.72
2023-04-15T09:34:14.180Z,100401.00
2023-04-15T09:36:54.835Z,100394.19
2023-04-15T09:39:24.209Z,100399.53
2023-04-15T09:42:14.085Z,100396.81
2023-04-15T09:44:40.494Z,100395.81
2023-04-15T09:47:06.923Z,100403.88
2023-04-15T09:49:33.376Z,100402.22
2023-04-15T09:52:05.490Z,100403.31
2023-04-15T09:54:53.275Z,100404.16
2023-04-15T09:57:49.315Z,100406.38
2023-04-15T10:00:15.915Z,100418.47
2023-04-15T10:02:44.749Z,100410.69
2023-04-15T10:05:14.480Z,100410.50
2023-04-15T10:07:46.937Z,100412.03
2023-04-15T10:10:17.499Z,100404.66
2023-04-15T10:12:44.043Z,100414.47
2023-04-15T10:15:14.389Z,100410.91
2023-04-15T10:17:40.760Z,100410.97
2023-04-15T10:20:07.723Z,100413.75
2023-04-15T10:22:41.809Z,100409.25
2023-04-15T10:25:08.408Z,100412.00
2023-04-15T10:27:36.797Z,100401.44
2023-04-15T10:30:04.350Z,100407.56
2023-04-15T10:32:31.125Z,100404.72
2023-04-15T10:35:06.887Z,100410.19
2023-04-15T10:37:41.775Z,100410.81
2023-04-15T10:40:31.045Z,100410.66
2023-04-15T10:42:57.833Z,100408.88
2023-04-15T10:45:35.030Z,100403.78
2023-04-15T10:48:03.551Z,100405.97
2023-04-15T10:50:35.923Z,100407.22
2023-04-15T10:53:19.845Z,100404.28
2023-04-15T10:55:47.478Z,100403.19
2023-04-15T10:58:15.061Z,100401.41
2023-04-15T11:00:41.456Z,100409.97
2023-04-15T11:03:12.097Z,100407.91
2023-04-15T11:05:52.271Z,100406.63
2023-04-15T11:08:18.902Z,100414.63
2023-04-15T11:10:53.178Z,100410.63
2023-04-15T11:13:23.668Z,100406.16
2023-04-15T11:16:02.617Z,100415.19
2023-04-15T11:18:31.598Z,100401.31
2023-04-15T11:21:06.995Z,100403.28
2023-04-15T11:23:36.771Z,100401.94
2023-04-15T11:29:09.319Z,100413.88
2023-04-15T11:31:37.460Z,100406.75
2023-04-15T11:34:09.023Z,100409.09
2023-04-15T11:36:35.542Z,100412.19
2023-04-15T11:39:26.747Z,100408.69
2023-04-15T11:42:18.745Z,100414.88
2023-04-15T11:45:13.018Z,100415.50
2023-04-15T11:47:39.811Z,100423.41
2023-04-15T11:50:23.272Z,100419.59
2023-04-15T11:52:59.435Z,100420.78
2023-04-15T11:55:26.370Z,100422.59
2023-04-15T11:58:11.636Z,100425.00
2023-04-15T12:00:38.204Z,100424.31
2023-04-15T12:03:22.943Z,100429.00
2023-04-15T12:06:06.013Z,100427.22
2023-04-15T12:08:52.036Z,100423.63
2023-04-15T12:11:27.647Z,100429.94
2023-04-15T12:13:54.941Z,100435.22
2023-04-15T12:16:21.374Z,100430.94
2023-04-15T12:18:48.640Z,100430.88
2023-04-15T12:21:15.504Z,100432.13
2023-04-15T12:23:52.051Z,100430.88
2023-04-15T12:26:28.659Z,100431.88
2023-04-15T12:28:57.551Z,100435.72
2023-04-15T12:31:24.148Z,100442.56
2023-04-15T12:33:54.016Z,100453.03
2023-04-15T12:36:20.341Z,100445.28
2023-04-15T12:38:46.732Z,100446.84
2023-04-15T12:41:13.111Z,100450.28
2023-04-15T12:43:39.470Z,100456.19
2023-04-15T12:46:06.941Z,100457.81
2023-04-15T12:48:33.405Z,100462.66
2023-04-15T12:50:59.942Z,100456.47
2023-04-15T12:53:28.501Z,100464.78
2023-04-15T12:55:55.001Z,100468.75
2023-04-15T12:58:21.523Z,100464.97
2023-04-15T13:00:48.654Z,100469.22
2023-04-15T13:03:15.531Z,100471.38
2023-04-15T13:05:42.063Z,100477.50
2023-04-15T13:08:08.436Z,100469.09
2023-04-15T13:10:36.478Z,100479.13
2023-04-15T13:13:05.854Z,100479.56
2023-04-15T13:15:32.260Z,100490.66
2023-04-15T13:17:58.660Z,100478.41
2023-04-15T13:20:26.828Z,100488.41
2023-04-15T13:22:53.402Z,100494.00
2023-04-15T13:25:19.877Z,100493.00
2023-04-15T13:27:46.646Z,100493.19
2023-04-15T13:30:13.229Z,100488.47
2023-04-15T13:32:39.644Z,100495.31
2023-04-15T13:35:06.187Z,100499.25
2023-04-15T13:37:32.626Z,100500.84
2023-04-15T13:39:59.042Z,100501.09
2023-04-15T13:42:25.498Z,100508.72
2023-04-15T13:44:51.840Z,100503.00
2023-04-15T13:47:21.515Z,100506.97
2023-04-15T13:49:47.950Z,100502.03
2023-04-15T13:52:17.068Z,100502.81
2023-04-15T13:54:44.607Z,100507.91
2023-04-15T13:57:11.084Z,100514.94
2023-04-15T13:59:38.902Z,100516.72
2023-04-15T14:02:05.612Z,100506.50
2023-04-15T14:04:32.214Z,100508.47
2023-04-15T14:06:58.970Z,100522.16
2023-04-15T14:09:26.483Z,100517.50
2023-04-15T14:11:54.269Z,100518.00
2023-04-15T14:14:20.793Z,100517.09
2023-04-15T14:16:48.467Z,100532.22
2023-04-15T14:19:14.915Z,100523.66
2023-04-15T14:21:41.301Z,100529.66
2023-04-15T14:24:07.697Z,100525.19
2023-04-15T14:26:34.129Z,100524.28
2023-04-15T14:29:01.226Z,100535.72
2023-04-15T14:31:28.382Z,100530.34
2023-04-15T14:33:56.188Z,100538.22
2023-04-15T14:36:22.569Z,100533.94
2023-04-15T14:38:49.574Z,100536.75
2023-04-15T14:41:16.130Z,100542.63
2023-04-15T14:43:42.604Z,100541.81
2023-04-15T14:46:09.199Z,100540.91
2023-04-15T14:48:35.737Z,100548.66
2023-04-15T14:51:02.276Z,100546.78
2023-04-15T14:53:28.640Z,100548.06
2023-04-15T14:55:55.210Z,100543.59
2023-04-15T14:58:21.603Z,100549.91
2023-04-15T15:00:48.115Z,100560.16
2023-04-15T15:03:14.784Z,100561.25
2023-04-15T15:05:42.953Z,100563.94
2023-04-15T15:08:09.684Z,100559.81
2023-04-15T15:10:48.580Z,100563.69
2023-04-15T15:13:17.111Z,100561.81
2023-04-15T15:15:52.404Z,100567.34
2023-04-15T15:18:19.993Z,100566.44
2023-04-15T15:20:49.534Z,100564.72
2023-04-15T15:23:18.515Z,100571.88
2023-04-15T15:25:46.371Z,100573.50
2023-04-15T15:28:15.056Z,100581.44
2023-04-15T15:30:41.460Z,100579.06
2023-04-15T15:33:07.975Z,100583.72
2023-04-15T15:35:34.532Z,100591.59
2023-04-15T15:38:01.716Z,100589.16
2023-04-15T15:40:28.133Z,100588.28
2023-04-15T15:42:54.484Z,100594.34
2023-04-15T15:45:20.854Z,100600.66
2023-04-15T15:47:47.446Z,100597.28
2023-04-15T15:50:13.939Z,100595.50
2023-04-15T15:52:41.742Z,100607.34
2023-04-15T15:55:08.384Z,100606.44
2023-04-15T15:57:41.825Z,100609.13
2023-04-15T16:00:12.014Z,100613.41
2023-04-15T16:05:08.233Z,100622.31
2023-04-15T16:07:34.619Z,100620.44
2023-04-15T16:10:00.963Z,100625.78
2023-04-15T16:12:27.353Z,100624.94
2023-04-15T16:14:53.710Z,100623.91
2023-04-15T16:17:20.129Z,100630.94
2023-04-15T16:19:57.932Z,100634.44
2023-04-15T16:22:29.724Z,100638.69
2023-04-15T16:24:56.066Z,100633.63
2023-04-15T16:27:22.414Z,100637.19
2023-04-15T16:29:48.884Z,100643.09
2023-04-15T16:32:15.357Z,100644.69
2023-04-15T16:34:41.927Z,100651.47
2023-04-15T16:37:08.364Z,100649.72
2023-04-15T16:39:34.779Z,100651.31
2023-04-15T16:42:02.434Z,100655.94
2023-04-15T16:44:28.937Z,100660.56
2023-04-15T16:46:55.725Z,100656.19
2023-04-15T16:49:22.205Z,100658.84
2023-04-15T16:51:48.591Z,100664.16
2023-04-15T16:54:14.957Z,100666.56
2023-04-15T16:56:41.285Z,100664.97
2023-04-15T16:59:07.679Z,100672.88
2023-04-15T17:01:34.087Z,100673.16
2023-04-15T17:04:00.677Z,100663.56
2023-04-15T17:06:27.207Z,100671.16
2023-04-15T17:08:53.573Z,100672.97
2023-04-15T17:11:19.990Z,100682.72
2023-04-15T17:13:46.832Z,100683.56
2023-04-15T17:16:13.319Z,100685.28
2023-04-15T17:18:39.700Z,100684.34
2023-04-15T17:21:06.263Z,100688.59
2023-04-15T17:23:32.695Z,100687.75
2023-04-15T17:26:00.134Z,100699.09
2023-04-15T17:28:29.151Z,100699.09
2023-04-15T17:30:55.667Z,100701.09
2023-04-15T17:34:02.198Z,100700.88
2023-04-15T17:36:08.816Z,100701.78
2023-04-15T17:38:35.276Z,100707.94
2023-04-15T17:41:01.692Z,100706.16
2023-04-15T17:43:28.146Z,100710.56
2023-04-15T17:45:54.526Z,100717.44
2023-04-15T17:48:21.088Z,100719.31
2023-04-15T17:50:48.132Z,100714.97
2023-04-15T17:53:16.188Z,100719.44
2023-04-15T17:55:42.504Z,100722.84
2023-04-15T17:58:08.915Z,100729.97
2023-04-15T18:00:35.415Z,100727.44
2023-04-15T18:03:01.960Z,100738.06
2023-04-15T18:05:28.459Z,100742.34
2023-04-15T18:07:55.000Z,100745.09
2023-04-15T18:10:21.601Z,100750.59
2023-04-15T18:12:48.095Z,100751.50
2023-04-15T18:15:14.593Z,100766.00
2023-04-15T18:17:41.009Z,100761.50
2023-04-15T18:20:07.560Z,100768.72
2023-04-15T18:22:34.232Z,100768.63
2023-04-15T18:25:04.237Z,100774.94
2023-04-15T18:27:32.335Z,100772.22
2023-04-15T18:29:59.152Z,100775.09
2023-04-15T18:32:25.819Z,100779.50
2023-04-15T18:34:53.275Z,100781.28
2023-04-15T18:37:19.973Z,100776.19
2023-04-15T18:40:09.274Z,100786.53
2023-04-15T18:42:35.934Z,100786.53
2023-04-15T18:45:04.750Z,100785.75
2023-04-15T18:47:31.257Z,100791.13
2023-04-15T18:49:58.437Z,100781.78
2023-04-15T18:52:24.929Z,100789.50
2023-04-15T18:54:51.470Z,100798.28
2023-04-15T18:57:22.720Z,100791.19
2023-04-15T18:59:52.331Z,100803.56
2023-04-15T19:02:18.985Z,100791.47
2023-04-15T19:04:46.688Z,100796.72
2023-04-15T19:07:13.087Z,100806.47
2023-04-15T19:09:39.591Z,100802.19
2023-04-15T19:12:07.054Z,100804.81
2023-04-15T19:14:33.625Z,100804.03
2023-04-15T19:17:00.113Z,100809.16
2023-04-15T19:19:29.040Z,100806.69
2023-04-15T19:21:55.547Z,100802.06
2023-04-15T19:24:22.313Z,100809.31
2023-04-15T19:26:50.274Z,100810.28
2023-04-15T19:29:16.713Z,100799.91
2023-04-15T19:31:43.077Z,100814.63
2023-04-15T19:34:09.410Z,100814.91
2023-04-15T19:36:35.911Z,100814.94
2023-04-15T19:39:02.569Z,100813.97
2023-04-15T19:41:29.036Z,100814.22
2023-04-15T19:43:55.502Z,100819.53
2023-04-15T19:46:21.888Z,100819.72
2023-04-15T19:48:48.322Z,100822.19
2023-04-15T19:51:14.774Z,100826.59
2023-04-15T19:53:41.325Z,100824.06
2023-04-15T19:56:07.665Z,100813.88
2023-04-15T19:58:34.068Z,100820.03
2023-04-15T20:01:01.392Z,100826.22
2023-04-15T20:03:27.896Z,100823.78
2023-04-15T20:05:54.431Z,100823.78
2023-04-15T20:08:20.898Z,100819.56
2023-04-15T20:10:47.257Z,100824.13
2023-04-15T20:13:13.660Z,100824.00
2023-04-15T20:15:41.350Z,100833.69
2023-04-15T20:18:07.806Z,100833.06
2023-04-15T20:20:34.863Z,100826.19
2023-04-15T20:23:01.217Z,100836.75
2023-04-15T20:25:27.582Z,100834.25
2023-04-15T20:27:53.977Z,100832.41
2023-04-15T20:30:20.688Z,100829.03
2023-04-15T20:32:47.104Z,100832.56
2023-04-15T20:35:16.578Z,100825.88
2023-04-15T20:37:45.085Z,100828.44
2023-04-15T20:40:14.373Z,100833.72
2023-04-15T20:42:43.164Z,100830.13
2023-04-15T20:45:09.896Z,100838.13
2023-04-15T20:47:36.277Z,100833.78
2023-04-15T20:50:02.734Z,100833.94
2023-04-15T20:52:29.110Z,100833.75
2023-04-15T20:54:55.629Z,100839.25
2023-04-15T20:57:27.007Z,100833.97
2023-04-15T20:59:53.342Z,100836.69
2023-04-15T21:02:19.868Z,100836.53
2023-04-15T21:04:47.654Z,100841.09
2023-04-15T21:07:13.986Z,100844.53
2023-04-15T21:09:41.863Z,100843.97
2023-04-15T21:12:08.566Z,100851.72
2023-04-15T21:14:35.854Z,100849.97
2023-04-15T21:17:08.496Z,100854.38
2023-04-15T21:19:36.975Z,100850.06
2023-04-15T21:22:03.377Z,100847.44
2023-04-15T21:24:29.898Z,100851.91
2023-04-15T21:26:57.219Z,100862.34
2023-04-15T21:29:23.751Z,100861.44
2023-04-15T21:31:50.355Z,100861.31
2023-04-15T21:34:16.865Z,100857.81
2023-04-15T21:36:43.234Z,100863.06
2023-04-15T21:39:09.630Z,100862.91
2023-04-15T21:41:36.902Z,100864.66
2023-04-15T21:44:03.540Z,100868.31
2023-04-15T21:46:35.004Z,100873.56
2023-04-15T21:49:02.063Z,100873.53
2023-04-15T21:51:28.431Z,100876.09
2023-04-15T21:53:54.892Z,100874.53
2023-04-15T21:56:24.027Z,100877.03
2023-04-15T21:58:50.410Z,100882.38
2023-04-15T22:01:18.102Z,100881.47
2023-04-15T22:03:46.947Z,100891.81
2023-04-15T22:06:13.829Z,100889.38
2023-04-15T22:08:55.039Z,100890.22
2023-04-15T22:11:28.615Z,100892.72
2023-04-15T22:13:55.468Z,100896.34
2023-04-15T22:16:21.892Z,100905.22
2023-04-15T22:18:50.458Z,100903.34
2023-04-15T22:21:16.910Z,100904.22
2023-04-15T22:23:47.284Z,100913.94
2023-04-15T22:26:16.008Z,100917.31
2023-04-15T22:28:42.470Z,100915.69
2023-04-15T22:31:09.011Z,100915.78
2023-04-15T22:33:35.561Z,100916.50
2023-04-15T22:36:01.970Z,100913.94
2023-04-15T22:38:28.356Z,100916.78
2023-04-15T22:40:54.987Z,100914.19
2023-04-15T22:43:21.348Z,100917.75
2023-04-15T22:45:51.135Z,100915.00
2023-04-15T22:48:18.025Z,100920.97
2023-04-15T22:50:44.429Z,100920.06
2023-04-15T22:53:10.811Z,100916.59
2023-04-15T22:55:37.178Z,100920.91
2023-04-15T22:58:03.596Z,100920.97
2023-04-15T23:00:29.946Z,100921.13
2023-04-15T23:02:56.453Z,100916.66
2023-04-15T23:05:22.909Z,100923.53
2023-04-15T23:07:49.285Z,100927.03
2023-04-15T23:10:15.750Z,100918.22
2023-04-15T23:12:42.090Z,100929.41
2023-04-15T23:15:08.711Z,100919.13
2023-04-15T23:17:35.319Z,100929.69
2023-04-15T23:20:01.779Z,100925.38
2023-04-15T23:22:28.181Z,100923.63
2023-04-15T23:24:55.567Z,100922.75
2023-04-15T23:27:22.809Z,100925.50
2023-04-15T23:29:49.143Z,100929.88
2023-04-15T23:32:15.534Z,100921.97
2023-04-15T23:34:42.034Z,100926.25
2023-04-15T23:37:08.435Z,100932.31
2023-04-15T23:39:34.796Z,100929.56
2023-04-15T23:42:01.248Z,100929.97
2023-04-15T23:44:29.925Z,100929.94
2023-04-15T23:46:56.361Z,100929.88
2023-04-15T23:49:25.054Z,100923.88
2023-04-15T23:51:51.492Z,100930.03
2023-04-15T23:54:17.863Z,100932.66
2023-04-15T23:56:44.213Z,100929.50
2023-04-15T23:59:10.786Z,100935.50
